createdAt,value
2022-08-17T00:00:11.991Z,82.70
2022-08-17T00:03:05.955Z,83.61
2022-08-17T00:05:37.887Z,81.83
2022-08-17T00:08:05.713Z,83.34
2022-08-17T00:10:33.638Z,84.56
2022-08-17T00:13:05.539Z,84.26
2022-08-17T00:15:33.775Z,83.82
2022-08-17T00:18:01.782Z,84.40
2022-08-17T00:20:33.600Z,83.88
2022-08-17T00:23:04.418Z,84.02
2022-08-17T00:25:32.712Z,84.36
2022-08-17T00:28:00.924Z,84.43
2022-08-17T00:30:29.551Z,84.28
2022-08-17T00:33:14.482Z,83.12
2022-08-17T00:35:45.950Z,82.09
2022-08-17T00:38:13.965Z,81.45
2022-08-17T00:40:44.876Z,83.08
2022-08-17T00:43:18.909Z,83.69
2022-08-17T00:45:47.917Z,83.59
2022-08-17T00:48:29.851Z,83.38
2022-08-17T00:50:58.325Z,84.17
2022-08-17T00:53:28.981Z,83.66
2022-08-17T00:55:58.161Z,83.34
2022-08-17T00:58:35.827Z,83.98
2022-08-17T01:01:05.747Z,84.28
2022-08-17T01:03:35.297Z,84.23
2022-08-17T01:06:04.494Z,84.26
2022-08-17T01:08:34.426Z,84.09
2022-08-17T01:11:02.863Z,84.36
2022-08-17T01:13:39.779Z,84.65
2022-08-17T01:16:20.954Z,84.43
2022-08-17T01:18:50.836Z,84.25
2022-08-17T01:21:32.161Z,84.61
2022-08-17T01:24:00.740Z,84.95
2022-08-17T01:26:29.972Z,84.32
2022-08-17T01:28:57.812Z,83.40
2022-08-17T01:31:28.842Z,83.70
2022-08-17T01:33:59.621Z,83.93
2022-08-17T01:36:29.572Z,83.67
2022-08-17T01:38:57.561Z,83.80
2022-08-17T01:41:26.003Z,82.45
2022-08-17T01:43:59.241Z,79.86
2022-08-17T01:46:28.968Z,80.83
2022-08-17T01:48:57.675Z,83.13
2022-08-17T01:51:29.590Z,83.35
2022-08-17T01:53:58.511Z,83.46
2022-08-17T01:56:28.900Z,84.22
2022-08-17T01:58:57.054Z,84.33
2022-08-17T02:01:26.653Z,84.90
2022-08-17T02:04:00.487Z,85.24
2022-08-17T02:06:31.423Z,84.35
2022-08-17T02:09:16.643Z,84.27
2022-08-17T02:11:45.357Z,84.39
2022-08-17T02:14:14.492Z,84.53
2022-08-17T02:16:42.424Z,83.90
2022-08-17T02:19:12.366Z,84.17
2022-08-17T02:21:41.463Z,84.93
2022-08-17T02:24:11.783Z,85.18
2022-08-17T02:26:41.077Z,85.38
2022-08-17T02:29:09.065Z,84.95
2022-08-17T02:31:38.062Z,83.69
2022-08-17T02:34:06.371Z,84.20
2022-08-17T02:36:35.065Z,85.31
2022-08-17T02:39:04.598Z,85.05
2022-08-17T02:41:33.320Z,83.48
2022-08-17T02:44:01.230Z,82.63
2022-08-17T02:46:30.532Z,81.89
2022-08-17T02:48:59.191Z,83.64
2022-08-17T02:51:27.705Z,83.95
2022-08-17T02:54:39.170Z,82.61
2022-08-17T02:56:44.169Z,82.24
2022-08-17T02:59:11.921Z,84.13
2022-08-17T03:01:39.744Z,85.40
2022-08-17T03:04:08.172Z,85.55
2022-08-17T03:06:37.441Z,85.59
2022-08-17T03:09:05.284Z,84.94
2022-08-17T03:11:33.141Z,84.17
2022-08-17T03:14:00.961Z,84.22
2022-08-17T03:16:28.714Z,83.78
2022-08-17T03:18:57.096Z,81.66
2022-08-17T03:21:25.073Z,80.05
2022-08-17T03:23:54.608Z,81.49
2022-08-17T03:26:22.848Z,81.53
2022-08-17T03:28:50.675Z,81.37
2022-08-17T03:31:18.918Z,81.19
2022-08-17T03:33:47.009Z,81.96
2022-08-17T03:36:15.003Z,79.13
2022-08-17T03:38:42.902Z,79.15
2022-08-17T03:41:14.026Z,81.21
2022-08-17T03:43:41.883Z,80.49
2022-08-17T03:46:35.289Z,80.05
2022-08-17T03:49:23.746Z,80.89
2022-08-17T03:52:10.579Z,79.67
2022-08-17T03:54:57.466Z,78.28
2022-08-17T03:57:26.432Z,77.43
2022-08-17T03:59:54.665Z,77.13
2022-08-17T04:02:24.337Z,76.60
2022-08-17T04:04:52.814Z,75.40
2022-08-17T04:07:22.008Z,74.67
2022-08-17T04:09:50.129Z,75.22
2022-08-17T04:12:19.247Z,76.65
2022-08-17T04:14:53.286Z,77.03
2022-08-17T04:17:24.248Z,77.57
2022-08-17T04:19:53.086Z,77.82
2022-08-17T04:22:33.121Z,78.36
2022-08-17T04:25:07.121Z,80.55
2022-08-17T04:27:35.055Z,81.15
2022-08-17T04:30:03.192Z,81.10
2022-08-17T04:33:05.191Z,81.73
2022-08-17T04:35:24.803Z,82.47
2022-08-17T04:37:52.819Z,81.37
2022-08-17T04:40:39.905Z,79.74
2022-08-17T04:43:09.415Z,77.78
2022-08-17T04:45:41.091Z,75.96
2022-08-17T04:48:29.737Z,74.93
2022-08-17T04:51:07.446Z,75.48
2022-08-17T04:53:35.886Z,75.31
2022-08-17T04:56:04.508Z,74.81
2022-08-17T04:58:32.309Z,74.17
2022-08-17T05:01:00.254Z,73.65
2022-08-17T05:03:28.316Z,73.81
2022-08-17T05:05:56.095Z,74.42
2022-08-17T05:08:23.999Z,74.21
2022-08-17T05:10:52.252Z,73.84
2022-08-17T05:13:22.228Z,72.92
2022-08-17T05:15:53.508Z,72.08
2022-08-17T05:18:22.331Z,71.80
2022-08-17T05:20:52.940Z,71.48
2022-08-17T05:23:21.867Z,72.11
2022-08-17T05:25:51.795Z,72.54
2022-08-17T05:28:24.257Z,72.77
2022-08-17T05:30:56.650Z,72.97
2022-08-17T05:33:26.512Z,72.62
2022-08-17T05:35:55.883Z,73.10
2022-08-17T05:38:25.692Z,73.14
2022-08-17T05:40:54.431Z,73.05
2022-08-17T05:43:24.478Z,72.41
2022-08-17T05:46:05.304Z,72.29
2022-08-17T05:48:39.931Z,72.36
2022-08-17T05:51:27.032Z,72.35
2022-08-17T05:53:58.753Z,72.22
2022-08-17T05:56:36.741Z,71.36
2022-08-17T05:59:10.866Z,69.79
2022-08-17T06:01:51.261Z,68.99
2022-08-17T06:04:28.476Z,68.19
2022-08-17T06:07:12.183Z,66.94
2022-08-17T06:09:40.166Z,65.95
2022-08-17T06:12:21.567Z,65.23
2022-08-17T06:14:55.453Z,64.01
2022-08-17T06:17:25.240Z,63.27
2022-08-17T06:19:56.125Z,60.44
2022-08-17T06:22:27.610Z,56.52
2022-08-17T06:25:02.182Z,52.06
2022-08-17T06:27:38.869Z,48.42
2022-08-17T06:30:09.409Z,45.16
2022-08-17T06:32:42.874Z,42.67
2022-08-17T06:35:19.413Z,40.83
2022-08-17T06:37:58.416Z,39.22
2022-08-17T06:40:29.216Z,37.99
2022-08-17T06:43:06.625Z,36.47
2022-08-17T06:45:38.204Z,34.70
2022-08-17T06:48:15.459Z,33.83
2022-08-17T06:50:46.238Z,33.26
2022-08-17T06:53:14.139Z,31.63
2022-08-17T06:55:48.427Z,30.96
2022-08-17T06:58:21.244Z,29.10
2022-08-17T07:00:56.601Z,28.62
2022-08-17T07:03:32.053Z,29.14
2022-08-17T07:06:19.493Z,29.60
2022-08-17T07:08:47.669Z,30.88
2022-08-17T07:11:17.352Z,31.72
2022-08-17T07:13:51.142Z,32.17
2022-08-17T07:16:20.463Z,32.91
2022-08-17T07:18:51.222Z,34.01
2022-08-17T07:21:29.334Z,34.83
2022-08-17T07:24:03.937Z,37.20
2022-08-17T07:26:31.762Z,39.43
2022-08-17T07:29:00.814Z,41.13
2022-08-17T07:31:30.590Z,41.64
2022-08-17T07:34:00.966Z,41.37
2022-08-17T07:36:33.797Z,40.62
2022-08-17T07:39:02.728Z,39.89
2022-08-17T07:41:53.042Z,39.72
2022-08-17T07:44:21.920Z,40.00
2022-08-17T07:47:10.872Z,40.09
2022-08-17T07:49:40.687Z,39.38
2022-08-17T07:52:13.398Z,39.61
2022-08-17T07:54:57.818Z,39.63
2022-08-17T07:57:33.560Z,39.34
2022-08-17T08:00:01.629Z,39.15
2022-08-17T08:02:38.522Z,38.64
2022-08-17T08:05:29.934Z,37.70
2022-08-17T08:08:18.547Z,37.51
2022-08-17T08:10:57.592Z,37.38
2022-08-17T08:13:28.924Z,35.23
2022-08-17T08:16:11.870Z,34.03
2022-08-17T08:18:55.905Z,35.44
2022-08-17T08:21:29.104Z,36.30
2022-08-17T08:24:05.572Z,36.85
2022-08-17T08:26:43.068Z,38.04
2022-08-17T08:29:10.930Z,38.60
2022-08-17T08:31:42.204Z,38.57
2022-08-17T08:34:53.163Z,38.46
2022-08-17T08:37:34.470Z,39.35
2022-08-17T08:40:13.354Z,39.93
2022-08-17T08:43:00.147Z,40.53
2022-08-17T08:45:32.123Z,41.21
2022-08-17T08:48:22.698Z,41.27
2022-08-17T08:50:54.570Z,39.82
2022-08-17T08:53:26.697Z,38.46
2022-08-17T08:56:13.703Z,36.96
2022-08-17T08:59:03.484Z,37.29
2022-08-17T09:01:38.235Z,36.72
2022-08-17T09:04:25.829Z,35.01
2022-08-17T09:07:00.826Z,34.60
2022-08-17T09:09:48.308Z,34.42
2022-08-17T09:12:31.567Z,34.99
2022-08-17T09:15:12.969Z,33.70
2022-08-17T09:18:08.572Z,33.36
2022-08-17T09:20:50.054Z,34.00
2022-08-17T09:23:39.600Z,34.73
2022-08-17T09:26:22.575Z,34.38
2022-08-17T09:28:51.894Z,33.61
2022-08-17T09:31:32.769Z,32.76
2022-08-17T09:34:12.833Z,32.41
2022-08-17T09:37:01.968Z,32.10
2022-08-17T09:39:34.714Z,32.48
2022-08-17T09:42:10.601Z,33.11
2022-08-17T09:44:40.281Z,33.12
2022-08-17T09:47:26.653Z,33.07
2022-08-17T09:50:00.486Z,33.90
2022-08-17T09:52:29.539Z,35.66
2022-08-17T09:54:59.295Z,37.64
2022-08-17T09:57:31.350Z,38.60
2022-08-17T09:59:59.280Z,38.73
2022-08-17T10:02:40.621Z,39.28
2022-08-17T10:05:13.901Z,39.56
2022-08-17T10:08:02.391Z,38.38
2022-08-17T10:10:37.570Z,38.03
2022-08-17T10:13:19.705Z,38.60
2022-08-17T10:16:00.584Z,38.67
2022-08-17T10:18:35.301Z,37.72
2022-08-17T10:21:29.786Z,37.10
2022-08-17T10:24:28.007Z,36.65
2022-08-17T10:26:58.251Z,35.95
2022-08-17T10:29:29.126Z,35.59
2022-08-17T10:32:03.541Z,33.89
2022-08-17T10:34:44.307Z,34.03
2022-08-17T10:37:22.772Z,34.32
2022-08-17T10:40:09.585Z,33.20
2022-08-17T10:42:44.503Z,33.24
2022-08-17T10:45:18.035Z,33.16
2022-08-17T10:48:05.239Z,33.06
2022-08-17T10:50:47.604Z,32.42
2022-08-17T10:53:46.073Z,33.38
2022-08-17T10:56:14.055Z,33.43
2022-08-17T10:58:55.863Z,32.47
2022-08-17T11:01:33.182Z,32.67
2022-08-17T11:04:08.997Z,32.05
2022-08-17T11:06:42.060Z,32.76
2022-08-17T11:09:15.995Z,32.55
2022-08-17T11:11:55.782Z,32.80
2022-08-17T11:14:26.334Z,33.35
2022-08-17T11:17:13.129Z,33.24
2022-08-17T11:19:57.381Z,32.80
2022-08-17T11:22:33.599Z,32.20
2022-08-17T11:25:14.197Z,31.81
2022-08-17T11:27:43.091Z,32.02
2022-08-17T11:30:13.041Z,32.37
2022-08-17T11:32:47.378Z,31.96
2022-08-17T11:35:21.835Z,32.19
2022-08-17T11:37:50.010Z,32.74
2022-08-17T11:40:17.826Z,32.86
2022-08-17T11:42:51.614Z,32.58
2022-08-17T11:45:32.313Z,32.87
2022-08-17T11:48:32.068Z,33.33
2022-08-17T11:51:25.125Z,33.70
2022-08-17T11:54:21.533Z,32.94
2022-08-17T11:56:49.161Z,33.34
2022-08-17T11:59:59.081Z,33.42
2022-08-17T12:02:31.589Z,34.20
2022-08-17T12:05:02.015Z,34.64
2022-08-17T12:07:32.552Z,34.20
2022-08-17T12:10:01.043Z,33.47
2022-08-17T12:12:33.221Z,33.80
2022-08-17T12:15:10.718Z,33.83
2022-08-17T12:17:42.656Z,34.39
2022-08-17T12:20:20.047Z,34.01
2022-08-17T12:23:04.182Z,33.68
2022-08-17T12:25:45.719Z,34.37
2022-08-17T12:28:26.501Z,34.84
2022-08-17T12:30:56.502Z,34.50
2022-08-17T12:33:28.400Z,33.63
2022-08-17T12:36:08.590Z,33.69
2022-08-17T12:38:38.169Z,34.09
2022-08-17T12:41:26.302Z,34.49
2022-08-17T12:43:58.723Z,34.56
2022-08-17T12:46:26.625Z,33.91
2022-08-17T12:48:58.684Z,33.59
2022-08-17T12:51:29.183Z,33.37
2022-08-17T12:53:57.160Z,32.75
2022-08-17T12:56:25.375Z,31.60
2022-08-17T12:58:54.512Z,31.89
2022-08-17T13:01:25.140Z,32.28
2022-08-17T13:03:55.099Z,32.32
2022-08-17T13:06:31.549Z,32.39
2022-08-17T13:09:12.694Z,32.44
2022-08-17T13:11:48.762Z,32.60
2022-08-17T13:14:19.360Z,32.33
2022-08-17T13:16:52.600Z,32.72
2022-08-17T13:19:29.734Z,32.71
2022-08-17T13:22:11.480Z,33.38
2022-08-17T13:24:49.110Z,33.82
2022-08-17T13:27:20.320Z,33.68
2022-08-17T13:29:53.778Z,33.27
2022-08-17T13:32:23.597Z,32.93
2022-08-17T13:35:12.516Z,33.67
2022-08-17T13:37:56.760Z,34.13
2022-08-17T13:40:26.284Z,33.96
2022-08-17T13:42:55.528Z,33.31
2022-08-17T13:45:36.623Z,33.98
2022-08-17T13:48:16.146Z,35.25
2022-08-17T13:50:59.688Z,35.14
2022-08-17T13:53:37.382Z,35.84
2022-08-17T13:56:38.373Z,36.50
2022-08-17T13:59:00.979Z,36.09
2022-08-17T14:01:34.913Z,36.06
2022-08-17T14:04:13.533Z,36.07
2022-08-17T14:06:55.589Z,36.46
2022-08-17T14:09:49.449Z,36.22
2022-08-17T14:12:19.963Z,37.49
2022-08-17T14:14:49.704Z,38.48
2022-08-17T14:17:18.763Z,38.67
2022-08-17T14:19:46.528Z,38.20
2022-08-17T14:22:31.427Z,38.05
2022-08-17T14:25:01.652Z,37.57
2022-08-17T14:27:33.655Z,37.56
2022-08-17T14:30:10.553Z,38.15
2022-08-17T14:32:41.688Z,38.28
2022-08-17T14:35:11.813Z,38.96
2022-08-17T14:37:39.775Z,39.54
2022-08-17T14:40:10.730Z,40.57
2022-08-17T14:42:39.934Z,40.49
2022-08-17T14:45:32.325Z,39.82
2022-08-17T14:47:57.772Z,39.46
2022-08-17T14:50:25.887Z,39.04
2022-08-17T14:52:56.411Z,38.77
2022-08-17T14:55:26.583Z,38.68
2022-08-17T14:57:54.558Z,38.31
2022-08-17T15:00:23.064Z,38.69
2022-08-17T15:02:53.890Z,39.32
2022-08-17T15:05:24.814Z,39.55
2022-08-17T15:07:53.665Z,40.07
2022-08-17T15:10:22.074Z,40.50
2022-08-17T15:12:49.962Z,41.16
2022-08-17T15:15:18.267Z,41.01
2022-08-17T15:17:46.411Z,41.04
2022-08-17T15:20:16.024Z,41.02
2022-08-17T15:22:45.542Z,41.06
2022-08-17T15:25:13.939Z,41.21
2022-08-17T15:27:42.088Z,41.18
2022-08-17T15:30:10.263Z,41.45
2022-08-17T15:32:39.649Z,41.65
2022-08-17T15:35:11.833Z,42.48
2022-08-17T15:37:40.537Z,43.98
2022-08-17T15:40:09.240Z,47.91
2022-08-17T15:42:37.378Z,51.49
2022-08-17T15:45:07.486Z,51.35
2022-08-17T15:47:36.719Z,51.04
2022-08-17T15:50:08.798Z,52.31
2022-08-17T15:52:40.292Z,54.75
2022-08-17T15:55:12.545Z,57.70
2022-08-17T15:57:40.777Z,59.77
2022-08-17T16:00:09.359Z,60.38
2022-08-17T16:03:45.712Z,62.26
2022-08-17T16:05:31.127Z,62.42
2022-08-17T16:07:59.959Z,62.47
2022-08-17T16:10:35.365Z,61.33
2022-08-17T16:13:04.381Z,59.79
2022-08-17T16:15:32.435Z,59.40
2022-08-17T16:18:00.445Z,58.83
2022-08-17T16:20:28.484Z,58.83
2022-08-17T16:22:56.961Z,58.46
2022-08-17T16:25:40.307Z,58.56
2022-08-17T16:28:17.489Z,57.85
2022-08-17T16:30:45.612Z,57.26
2022-08-17T16:33:13.844Z,58.91
2022-08-17T16:35:42.195Z,59.48
2022-08-17T16:38:11.096Z,58.77
2022-08-17T16:40:39.234Z,59.24
2022-08-17T16:43:12.235Z,58.80
2022-08-17T16:45:41.204Z,59.08
2022-08-17T16:48:09.887Z,58.74
2022-08-17T16:50:37.672Z,57.56
2022-08-17T16:53:06.716Z,57.57
2022-08-17T16:55:37.362Z,60.00
2022-08-17T16:58:05.453Z,61.55
2022-08-17T17:00:34.071Z,63.14
2022-08-17T17:03:19.529Z,62.08
2022-08-17T17:05:56.231Z,61.44
2022-08-17T17:08:34.925Z,61.58
2022-08-17T17:11:09.160Z,62.21
2022-08-17T17:13:43.789Z,63.64
2022-08-17T17:16:16.769Z,64.59
2022-08-17T17:19:08.063Z,64.92
2022-08-17T17:21:42.727Z,65.74
2022-08-17T17:24:14.128Z,66.49
2022-08-17T17:26:48.783Z,66.16
2022-08-17T17:29:22.420Z,66.46
2022-08-17T17:32:09.556Z,66.73
2022-08-17T17:34:38.569Z,67.23
2022-08-17T17:37:10.505Z,66.79
2022-08-17T17:39:53.910Z,67.50
2022-08-17T17:42:23.872Z,67.95
2022-08-17T17:45:01.100Z,69.23
2022-08-17T17:47:29.760Z,68.74
2022-08-17T17:50:00.521Z,70.17
2022-08-17T17:52:47.609Z,70.87
2022-08-17T17:55:15.618Z,71.87
2022-08-17T17:57:49.562Z,73.36
2022-08-17T18:00:21.623Z,74.09
2022-08-17T18:03:09.483Z,74.82
2022-08-17T18:05:44.576Z,76.23
2022-08-17T18:08:44.908Z,77.41
2022-08-17T18:11:24.670Z,77.80
2022-08-17T18:14:14.738Z,78.04
2022-08-17T18:16:43.613Z,77.78
2022-08-17T18:19:13.208Z,80.77
2022-08-17T18:21:46.105Z,80.18
2022-08-17T18:24:14.030Z,80.25
2022-08-17T18:26:44.741Z,79.95
2022-08-17T18:29:30.476Z,79.27
2022-08-17T18:32:24.673Z,79.37
2022-08-17T18:34:57.447Z,78.95
2022-08-17T18:37:40.263Z,79.57
2022-08-17T18:40:17.202Z,81.31
2022-08-17T18:42:55.500Z,80.15
2022-08-17T18:45:33.617Z,80.32
2022-08-17T18:48:02.542Z,81.62
2022-08-17T18:50:39.784Z,82.78
2022-08-17T18:53:26.523Z,83.05
2022-08-17T18:56:13.812Z,83.31
2022-08-17T18:58:42.212Z,82.77
2022-08-17T19:01:20.098Z,83.47
2022-08-17T19:03:48.791Z,82.92
2022-08-17T19:06:17.178Z,82.83
2022-08-17T19:08:45.147Z,82.95
2022-08-17T19:11:16.008Z,82.05
2022-08-17T19:13:45.566Z,81.67
2022-08-17T19:16:14.926Z,81.14
2022-08-17T19:18:49.193Z,80.57
2022-08-17T19:21:30.537Z,80.15
2022-08-17T19:24:04.578Z,81.38
2022-08-17T19:26:55.263Z,80.70
2022-08-17T19:29:39.441Z,79.55
2022-08-17T19:32:08.966Z,78.33
2022-08-17T19:34:37.804Z,77.99
2022-08-17T19:37:11.671Z,77.59
2022-08-17T19:39:55.429Z,76.74
2022-08-17T19:42:42.491Z,76.56
2022-08-17T19:45:13.344Z,76.59
2022-08-17T19:47:55.409Z,77.32
2022-08-17T19:50:41.570Z,78.84
2022-08-17T19:53:27.711Z,79.71
2022-08-17T19:56:12.243Z,79.15
2022-08-17T19:58:58.655Z,79.52
2022-08-17T20:01:44.810Z,80.65
2022-08-17T20:04:12.613Z,80.43
2022-08-17T20:06:43.258Z,81.25
2022-08-17T20:09:14.936Z,82.28
2022-08-17T20:11:53.657Z,82.24
2022-08-17T20:14:24.025Z,82.81
2022-08-17T20:16:52.707Z,83.23
2022-08-17T20:19:39.343Z,83.08
2022-08-17T20:22:12.064Z,83.74
2022-08-17T20:24:44.532Z,84.24
2022-08-17T20:27:12.250Z,85.08
2022-08-17T20:30:00.508Z,85.56
2022-08-17T20:32:53.132Z,86.28
2022-08-17T20:35:23.649Z,86.03
2022-08-17T20:37:53.780Z,84.88
2022-08-17T20:40:25.986Z,84.52
2022-08-17T20:42:54.448Z,84.53
2022-08-17T20:45:22.376Z,85.12
2022-08-17T20:48:18.672Z,85.49
2022-08-17T20:50:43.787Z,85.47
2022-08-17T20:53:13.664Z,84.72
2022-08-17T20:55:52.408Z,85.53
2022-08-17T20:58:29.974Z,85.32
2022-08-17T21:01:01.817Z,85.92
2022-08-17T21:03:43.149Z,86.80
2022-08-17T21:06:19.428Z,86.15
2022-08-17T21:08:57.699Z,85.76
2022-08-17T21:11:56.989Z,86.12
2022-08-17T21:14:25.238Z,85.89
2022-08-17T21:17:02.907Z,85.19
2022-08-17T21:20:07.697Z,83.89
2022-08-17T21:22:43.246Z,83.81
2022-08-17T21:25:10.983Z,83.74
2022-08-17T21:27:50.904Z,83.92
2022-08-17T21:30:44.631Z,84.39
2022-08-17T21:33:25.316Z,84.29
2022-08-17T21:35:58.968Z,84.26
2022-08-17T21:38:57.386Z,84.37
2022-08-17T21:41:27.640Z,85.21
2022-08-17T21:44:11.793Z,85.56
2022-08-17T21:46:46.620Z,85.80
2022-08-17T21:49:17.835Z,86.07
2022-08-17T21:51:50.197Z,87.30
2022-08-17T21:54:26.725Z,87.34
2022-08-17T21:56:55.016Z,87.35
2022-08-17T21:59:26.209Z,87.45
2022-08-17T22:01:58.684Z,87.73
2022-08-17T22:04:37.163Z,88.50
2022-08-17T22:07:06.600Z,88.78
2022-08-17T22:09:40.715Z,88.28
2022-08-17T22:12:19.332Z,88.83
2022-08-17T22:14:57.987Z,87.90
2022-08-17T22:17:35.954Z,87.17
2022-08-17T22:20:14.553Z,87.24
2022-08-17T22:23:04.397Z,86.86
2022-08-17T22:25:35.999Z,87.37
2022-08-17T22:28:05.679Z,87.39
2022-08-17T22:30:41.519Z,87.59
2022-08-17T22:33:30.180Z,87.79
2022-08-17T22:36:29.179Z,88.24
2022-08-17T22:39:09.213Z,87.86
2022-08-17T22:41:42.684Z,87.24
2022-08-17T22:44:15.799Z,86.90
2022-08-17T22:46:52.373Z,86.78
2022-08-17T22:49:26.840Z,86.43
2022-08-17T22:52:05.858Z,86.23
2022-08-17T22:54:52.173Z,86.09
2022-08-17T22:57:40.979Z,85.77
2022-08-17T23:00:28.179Z,86.28
2022-08-17T23:03:05.705Z,86.29
2022-08-17T23:05:34.471Z,85.59
2022-08-17T23:08:03.121Z,85.12
2022-08-17T23:10:30.884Z,85.29
2022-08-17T23:12:59.973Z,85.17
2022-08-17T23:15:33.827Z,85.54
2022-08-17T23:18:04.737Z,86.21
2022-08-17T23:20:34.679Z,86.59
2022-08-17T23:23:03.844Z,86.88
2022-08-17T23:25:33.656Z,87.20
2022-08-17T23:28:03.000Z,86.52
2022-08-17T23:30:32.293Z,86.35
2022-08-17T23:33:04.970Z,86.43
2022-08-17T23:35:39.904Z,86.65
2022-08-17T23:38:09.909Z,86.61
2022-08-17T23:40:39.592Z,87.24
2022-08-17T23:43:23.457Z,87.28
2022-08-17T23:45:54.680Z,87.01
2022-08-17T23:48:28.555Z,86.90
2022-08-17T23:51:09.205Z,86.44
2022-08-17T23:53:40.287Z,86.26
2022-08-17T23:56:11.269Z,85.85
2022-08-17T23:58:42.235Z,86.16
